Time;durP1;ratioP1;P1;durP2;ratioP2;P2;SDS_P1;SDS_P2;PMS_P1;PMS_P2;Temp;Humidity;BMP_temperature;BMP_pressure;BME280_temperature;BME280_humidity;BME280_pressure;Samples;Min_cycle;Max_cycle;Signal;HPM_P1;HPM_P2
2023/03/14 00:01:46;;;;;;;0.20;0.20;;;10.70;95.10;;;;;;4997201;28;20027;-76
2023/03/14 00:04:12;;;;;;;0.10;0.10;;;10.70;95.40;;;;;;4995083;28;20029;-75
2023/03/14 00:06:37;;;;;;;0.20;0.20;;;10.70;95.50;;;;;;4998929;28;20026;-75
2023/03/14 00:09:03;;;;;;;0.10;0.10;;;10.70;95.70;;;;;;4996612;28;20032;-75
2023/03/14 00:11:29;;;;;;;0.20;0.20;;;10.70;95.90;;;;;;4998716;28;20037;-76
2023/03/14 00:13:55;;;;;;;0.00;0.00;;;10.70;96.10;;;;;;5000173;28;20058;-76
2023/03/14 00:16:21;;;;;;;0.05;0.00;;;10.70;96.20;;;;;;5001348;28;20026;-75
2023/03/14 00:18:47;;;;;;;0.00;0.00;;;10.70;96.40;;;;;;4995326;28;20030;-75
2023/03/14 00:21:13;;;;;;;0.10;0.10;;;10.70;96.50;;;;;;4997231;28;20072;-76
2023/03/14 00:23:40;;;;;;;0.03;0.03;;;10.70;96.60;;;;;;5002094;28;20026;-75
2023/03/14 00:26:11;;;;;;;0.10;0.10;;;10.80;96.70;;;;;;5009877;28;20041;-75
2023/03/14 00:28:37;;;;;;;0.10;0.10;;;10.80;96.70;;;;;;5007465;28;20019;-77
2023/03/14 00:31:05;;;;;;;0.10;0.10;;;10.80;96.70;;;;;;5006720;28;20066;-75
2023/03/14 00:33:30;;;;;;;0.38;0.20;;;10.80;96.70;;;;;;5005259;28;20117;-75
2023/03/14 00:36:02;;;;;;;0.10;0.10;;;10.90;96.80;;;;;;5006179;28;20030;-75
2023/03/14 00:38:28;;;;;;;0.20;0.20;;;10.90;96.70;;;;;;5003206;28;20023;-75
2023/03/14 00:40:54;;;;;;;0.10;0.10;;;10.90;96.80;;;;;;5007517;28;20310;-74
2023/03/14 00:43:24;;;;;;;0.00;0.00;;;10.90;96.80;;;;;;5009710;28;20029;-74
2023/03/14 00:45:51;;;;;;;0.10;0.10;;;10.90;96.80;;;;;;5008579;28;20026;-75
2023/03/14 00:48:20;;;;;;;0.32;0.10;;;11.00;96.90;;;;;;5006855;28;20065;-74
2023/03/14 00:50:47;;;;;;;0.00;0.00;;;11.00;96.80;;;;;;5003799;28;20052;-74
2023/03/14 00:53:13;;;;;;;0.10;0.10;;;11.00;96.80;;;;;;5000221;28;20116;-74
2023/03/14 00:55:40;;;;;;;0.00;0.00;;;11.00;96.70;;;;;;4998909;28;20023;-77
2023/03/14 00:58:06;;;;;;;1.08;0.10;;;11.10;96.70;;;;;;4998514;28;20053;-75
2023/03/14 01:00:32;;;;;;;0.52;0.20;;;11.10;96.70;;;;;;4997177;28;20022;-75
2023/03/14 01:02:58;;;;;;;0.28;0.10;;;11.10;96.80;;;;;;4999968;28;20105;-75
2023/03/14 01:05:24;;;;;;;0.10;0.10;;;11.10;96.80;;;;;;4999293;28;20046;-75
2023/03/14 01:07:50;;;;;;;0.20;0.10;;;11.10;96.90;;;;;;5000022;28;20030;-74
2023/03/14 01:10:16;;;;;;;1.38;0.10;;;11.10;97.00;;;;;;4999009;28;20030;-75
2023/03/14 01:12:42;;;;;;;0.13;0.10;;;11.00;97.20;;;;;;5000760;28;20022;-76
2023/03/14 01:15:07;;;;;;;0.20;0.10;;;11.00;97.40;;;;;;5015786;28;20042;-75
2023/03/14 01:17:33;;;;;;;0.30;0.30;;;11.00;97.60;;;;;;5001992;28;20023;-74
2023/03/14 01:20:00;;;;;;;0.10;0.10;;;11.00;97.80;;;;;;4999514;28;20092;-75
2023/03/14 01:22:26;;;;;;;0.15;0.15;;;10.90;98.10;;;;;;4997126;28;20085;-74
2023/03/14 01:24:52;;;;;;;0.00;0.00;;;10.90;98.50;;;;;;4998383;28;20034;-74
2023/03/14 01:27:17;;;;;;;0.10;0.00;;;10.80;98.80;;;;;;4998050;28;20037;-75
2023/03/14 01:29:43;;;;;;;0.00;0.00;;;10.70;99.20;;;;;;4995841;28;20027;-74
2023/03/14 01:32:08;;;;;;;0.10;0.10;;;10.70;99.70;;;;;;4996396;28;20049;-76
2023/03/14 01:34:34;;;;;;;0.10;0.10;;;10.70;99.90;;;;;;4996779;28;20031;-76
2023/03/14 01:37:00;;;;;;;0.10;0.10;;;10.60;99.90;;;;;;4996581;28;20045;-76
2023/03/14 01:39:25;;;;;;;0.20;0.15;;;10.50;99.90;;;;;;4996792;28;20042;-75
2023/03/14 01:41:51;;;;;;;0.10;0.08;;;10.50;99.90;;;;;;4995355;28;20072;-76
2023/03/14 01:44:17;;;;;;;0.03;0.03;;;10.50;99.90;;;;;;4999098;28;20072;-76
2023/03/14 01:46:45;;;;;;;0.65;0.10;;;10.40;99.90;;;;;;4997625;28;20057;-74
2023/03/14 01:49:20;;;;;;;0.47;0.25;;;10.40;99.90;;;;;;5000318;28;20026;-76
2023/03/14 01:52:25;;;;;;;0.55;0.20;;;10.40;99.90;;;;;;4995777;28;20049;-74
2023/03/14 01:54:58;;;;;;;0.38;0.17;;;10.30;99.90;;;;;;4994688;28;20070;-75
2023/03/14 01:57:29;;;;;;;0.50;0.20;;;10.20;99.90;;;;;;4997617;28;20033;-75
2023/03/14 02:00:03;;;;;;;0.00;0.00;;;10.20;99.90;;;;;;4997047;28;20022;-75
2023/03/14 02:02:30;;;;;;;0.32;0.20;;;10.10;99.90;;;;;;4993736;28;20030;-75
2023/03/14 02:04:57;;;;;;;1.50;0.17;;;10.10;99.90;;;;;;4996333;28;20475;-76
2023/03/14 02:07:47;;;;;;;0.00;0.00;;;10.00;99.90;;;;;;5002509;28;20022;-75
2023/03/14 02:10:14;;;;;;;0.10;0.10;;;10.00;99.90;;;;;;4995148;28;20048;-74
2023/03/14 02:12:40;;;;;;;0.13;0.10;;;9.90;99.90;;;;;;4996707;28;20034;-74
2023/03/14 02:15:07;;;;;;;2.53;0.20;;;9.80;99.90;;;;;;5001222;28;20032;-76
2023/03/14 02:17:33;;;;;;;0.38;0.03;;;9.70;99.90;;;;;;4998917;28;20030;-75
2023/03/14 02:20:08;;;;;;;0.10;0.10;;;9.70;99.90;;;;;;4996718;28;20050;-75
2023/03/14 02:22:36;;;;;;;0.30;0.20;;;9.60;99.90;;;;;;4995672;28;20026;-75
2023/03/14 02:25:33;;;;;;;0.32;0.08;;;9.60;99.90;;;;;;4992274;28;20034;-74
2023/03/14 02:28:00;;;;;;;1.02;0.10;;;9.50;99.90;;;;;;4997387;28;20018;-74
2023/03/14 02:30:29;;;;;;;0.10;0.10;;;9.40;99.90;;;;;;4996579;28;20033;-75
2023/03/14 02:32:59;;;;;;;0.10;0.10;;;9.40;99.90;;;;;;4996827;28;20114;-75
2023/03/14 02:35:29;;;;;;;0.00;0.00;;;9.30;99.90;;;;;;4999107;28;20098;-74
2023/03/14 02:38:09;;;;;;;0.68;0.10;;;9.30;99.90;;;;;;4997926;28;20105;-75
2023/03/14 02:40:35;;;;;;;0.15;0.15;;;9.20;99.90;;;;;;4997142;28;20026;-75
2023/03/14 02:43:01;;;;;;;0.10;0.10;;;9.20;99.90;;;;;;5000705;28;20032;-75
2023/03/14 02:45:36;;;;;;;0.13;0.10;;;9.10;99.90;;;;;;5007311;28;20106;-75
2023/03/14 02:48:09;;;;;;;0.10;0.10;;;9.10;99.90;;;;;;4995828;28;20038;-75
2023/03/14 02:50:34;;;;;;;0.32;0.10;;;9.10;99.90;;;;;;4995574;28;20034;-75
2023/03/14 02:53:00;;;;;;;0.43;0.20;;;9.10;99.90;;;;;;4999247;28;20094;-75
2023/03/14 02:55:26;;;;;;;0.20;0.20;;;9.10;99.90;;;;;;5003349;28;20039;-75
2023/03/14 02:57:52;;;;;;;0.40;0.30;;;9.10;99.90;;;;;;5007190;28;20030;-74
2023/03/14 03:00:19;;;;;;;1.63;0.30;;;9.10;99.90;;;;;;5006164;28;20022;-74
2023/03/14 03:02:45;;;;;;;0.55;0.15;;;9.10;99.90;;;;;;5002847;28;20034;-75
2023/03/14 03:05:11;;;;;;;0.10;0.10;;;9.10;99.90;;;;;;5005846;28;20034;-75
2023/03/14 03:07:37;;;;;;;0.10;0.10;;;9.10;99.90;;;;;;5003296;28;20015;-74
2023/03/14 03:10:03;;;;;;;0.38;0.10;;;9.10;99.90;;;;;;5003655;28;20534;-74
2023/03/14 03:12:29;;;;;;;0.13;0.08;;;9.10;99.90;;;;;;5003005;28;20482;-74
2023/03/14 03:14:55;;;;;;;0.55;0.00;;;9.10;99.90;;;;;;5003857;28;20092;-74
2023/03/14 03:17:20;;;;;;;0.20;0.10;;;9.10;99.90;;;;;;5004235;28;20042;-75
2023/03/14 03:19:46;;;;;;;1.95;0.10;;;9.10;99.90;;;;;;5005818;28;20089;-75
2023/03/14 03:22:12;;;;;;;0.40;0.15;;;9.10;99.90;;;;;;5004050;28;20069;-75
2023/03/14 03:24:37;;;;;;;0.52;0.17;;;9.10;99.90;;;;;;5005435;28;20038;-75
2023/03/14 03:27:03;;;;;;;0.52;0.10;;;9.10;99.90;;;;;;5007220;28;20558;-75
2023/03/14 03:29:29;;;;;;;0.85;0.10;;;9.10;99.90;;;;;;5003448;28;20314;-74
2023/03/14 03:31:54;;;;;;;0.52;0.10;;;9.00;99.90;;;;;;5003481;28;20053;-75
2023/03/14 03:34:20;;;;;;;0.25;0.15;;;9.00;99.90;;;;;;5004316;28;20525;-76
2023/03/14 03:36:46;;;;;;;0.00;0.00;;;9.00;99.90;;;;;;5001468;28;20037;-76
2023/03/14 03:39:12;;;;;;;0.22;0.00;;;9.00;99.90;;;;;;5003067;28;20517;-75
2023/03/14 03:41:37;;;;;;;0.57;0.08;;;9.00;99.90;;;;;;5002956;28;20037;-76
2023/03/14 03:44:03;;;;;;;0.00;0.00;;;9.00;99.90;;;;;;5006821;28;20078;-75
2023/03/14 03:46:29;;;;;;;0.10;0.10;;;9.00;99.90;;;;;;5025288;28;20052;-75
2023/03/14 03:48:59;;;;;;;0.10;0.10;;;9.00;99.90;;;;;;5015580;28;20030;-74
2023/03/14 03:51:25;;;;;;;0.10;0.10;;;9.10;99.90;;;;;;5010615;28;20104;-75
2023/03/14 03:53:51;;;;;;;0.00;0.00;;;9.00;99.90;;;;;;5007189;28;20038;-75
2023/03/14 03:56:17;;;;;;;0.73;0.20;;;9.00;99.90;;;;;;5003957;28;20030;-74
2023/03/14 03:58:43;;;;;;;0.17;0.17;;;9.00;99.90;;;;;;5003112;28;20050;-76
2023/03/14 04:01:09;;;;;;;0.17;0.10;;;8.90;99.90;;;;;;5002647;28;20025;-75
2023/03/14 04:03:38;;;;;;;0.03;0.00;;;8.90;99.90;;;;;;4995756;28;20030;-73
2023/03/14 04:06:09;;;;;;;0.00;0.00;;;8.90;99.90;;;;;;5003385;28;20056;-74
2023/03/14 04:08:35;;;;;;;0.10;0.00;;;8.90;99.90;;;;;;5003673;28;20037;-73
2023/03/14 04:11:01;;;;;;;0.45;0.00;;;8.90;99.90;;;;;;5001847;28;20034;-74
2023/03/14 04:13:28;;;;;;;0.08;0.08;;;9.00;99.90;;;;;;5001990;28;20034;-73
2023/03/14 04:15:54;;;;;;;0.43;0.00;;;9.00;99.90;;;;;;5002089;28;20092;-73
2023/03/14 04:18:21;;;;;;;0.15;0.10;;;8.90;99.90;;;;;;5010310;28;20023;-73
2023/03/14 04:20:54;;;;;;;0.15;0.13;;;8.90;99.90;;;;;;5004695;28;20109;-73
2023/03/14 04:23:26;;;;;;;0.00;0.00;;;8.90;99.90;;;;;;5005441;28;20026;-74
2023/03/14 04:25:52;;;;;;;;;;;8.90;99.90;;;;;;4987432;28;20127;-74
2023/03/14 04:28:18;;;;;;;0.08;0.08;;;8.90;99.90;;;;;;5002770;28;20053;-73
2023/03/14 04:30:44;;;;;;;0.00;0.00;;;8.90;99.90;;;;;;5002811;28;20034;-73
2023/03/14 04:33:12;;;;;;;0.88;0.10;;;8.80;99.90;;;;;;4999989;28;20030;-74
2023/03/14 04:35:38;;;;;;;0.10;0.10;;;8.90;99.90;;;;;;5001765;28;20054;-74
2023/03/14 04:38:03;;;;;;;0.00;0.00;;;8.80;99.90;;;;;;5002343;28;20034;-74
2023/03/14 04:40:29;;;;;;;0.00;0.00;;;8.80;99.90;;;;;;5012481;28;20020;-75
2023/03/14 04:42:55;;;;;;;0.00;0.00;;;8.80;99.90;;;;;;5006973;28;20387;-75
2023/03/14 04:45:20;;;;;;;0.00;0.00;;;8.80;99.90;;;;;;5001831;28;20486;-73
2023/03/14 04:47:46;;;;;;;0.00;0.00;;;8.80;99.90;;;;;;4998930;28;20069;-74
2023/03/14 04:50:12;;;;;;;0.00;0.00;;;8.80;99.90;;;;;;4999303;28;20034;-75
2023/03/14 04:52:38;;;;;;;0.00;0.00;;;8.80;99.90;;;;;;5009607;28;20037;-80
2023/03/14 04:55:04;;;;;;;0.00;0.00;;;8.80;99.90;;;;;;5008359;28;20053;-79
2023/03/14 04:57:29;;;;;;;0.00;0.00;;;8.80;99.90;;;;;;5002873;28;20500;-76
2023/03/14 04:59:55;;;;;;;1.05;0.03;;;8.70;99.90;;;;;;5008885;28;20041;-77
2023/03/14 05:02:20;;;;;;;0.88;0.00;;;8.70;99.90;;;;;;5016987;28;20038;-75
2023/03/14 05:04:46;;;;;;;0.30;0.20;;;8.70;99.90;;;;;;5002546;28;20420;-75
2023/03/14 05:07:12;;;;;;;0.22;0.00;;;8.70;99.90;;;;;;5010607;28;20030;-75
2023/03/14 05:09:37;;;;;;;0.22;0.03;;;8.70;99.90;;;;;;5000295;28;20049;-75
2023/03/14 05:12:03;;;;;;;0.43;0.03;;;8.70;99.90;;;;;;5015351;28;20510;-76
2023/03/14 05:14:29;;;;;;;0.20;0.10;;;8.70;99.90;;;;;;5009686;28;20027;-76
2023/03/14 05:16:54;;;;;;;0.25;0.10;;;8.70;99.90;;;;;;5017089;28;20105;-75
2023/03/14 05:19:20;;;;;;;0.00;0.00;;;8.70;99.90;;;;;;5004065;28;20029;-75
2023/03/14 05:21:45;;;;;;;0.03;0.03;;;8.70;99.90;;;;;;5004416;28;20017;-75
2023/03/14 05:24:11;;;;;;;0.40;0.10;;;8.60;99.90;;;;;;5002199;28;20030;-74
2023/03/14 05:26:37;;;;;;;0.00;0.00;;;8.60;99.90;;;;;;5014862;28;20080;-75
2023/03/14 05:29:02;;;;;;;0.00;0.00;;;8.60;99.90;;;;;;5002848;28;20034;-75
2023/03/14 05:31:28;;;;;;;0.00;0.00;;;8.60;99.90;;;;;;4999763;28;20034;-75
2023/03/14 05:33:54;;;;;;;0.22;0.10;;;8.60;99.90;;;;;;5000066;28;20060;-75
2023/03/14 05:36:19;;;;;;;0.60;0.10;;;8.60;99.90;;;;;;4998640;28;20029;-75
2023/03/14 05:38:45;;;;;;;0.15;0.10;;;8.60;99.90;;;;;;5016973;28;20018;-75
2023/03/14 05:41:11;;;;;;;0.00;0.00;;;8.60;99.90;;;;;;5007978;28;20030;-75
2023/03/14 05:43:36;;;;;;;0.08;0.00;;;8.60;99.90;;;;;;5004227;28;20554;-75
2023/03/14 05:46:03;;;;;;;0.10;0.10;;;8.60;99.90;;;;;;5009187;28;20034;-75
2023/03/14 05:48:29;;;;;;;0.22;0.10;;;8.60;99.90;;;;;;5012338;28;20049;-75
2023/03/14 05:50:59;;;;;;;0.10;0.10;;;8.50;99.90;;;;;;4999363;28;20631;-75
2023/03/14 05:53:25;;;;;;;0.00;0.00;;;8.60;99.90;;;;;;4996719;28;20070;-76
2023/03/14 05:55:54;;;;;;;0.10;0.05;;;8.60;99.90;;;;;;5016791;28;20030;-75
2023/03/14 05:58:20;;;;;;;0.38;0.10;;;8.60;99.90;;;;;;5004500;28;20029;-76
2023/03/14 06:00:46;;;;;;;0.17;0.15;;;8.60;99.90;;;;;;5015888;28;20412;-75
2023/03/14 06:03:12;;;;;;;1.35;0.10;;;8.60;99.90;;;;;;5004613;28;20034;-75
2023/03/14 06:05:38;;;;;;;0.00;0.00;;;8.60;99.90;;;;;;4995425;28;20030;-75
2023/03/14 06:08:03;;;;;;;0.03;0.03;;;8.60;99.90;;;;;;4995603;28;20045;-75
2023/03/14 06:10:29;;;;;;;0.17;0.10;;;8.70;99.90;;;;;;4994586;28;20030;-75
2023/03/14 06:12:55;;;;;;;0.10;0.03;;;8.70;99.90;;;;;;4997689;28;20033;-75
2023/03/14 06:15:20;;;;;;;0.28;0.15;;;8.70;99.90;;;;;;5007092;28;20156;-75
2023/03/14 06:17:46;;;;;;;0.00;0.00;;;8.70;99.90;;;;;;5009372;28;20030;-75
2023/03/14 06:20:13;;;;;;;0.35;0.20;;;8.70;99.90;;;;;;4999327;28;20029;-74
2023/03/14 06:22:40;;;;;;;0.08;0.00;;;8.70;99.90;;;;;;5004706;28;20376;-75
2023/03/14 06:25:06;;;;;;;0.10;0.10;;;8.80;99.90;;;;;;4995491;28;20121;-76
2023/03/14 06:27:33;;;;;;;0.25;0.10;;;8.80;99.90;;;;;;4997833;28;20120;-75
2023/03/14 06:29:58;;;;;;;0.30;0.00;;;8.90;99.90;;;;;;4995608;28;20045;-76
2023/03/14 06:32:24;;;;;;;1.98;0.28;;;8.90;99.90;;;;;;4995879;28;21519;-76
2023/03/14 06:34:50;;;;;;;0.13;0.10;;;8.90;99.90;;;;;;4998642;28;20041;-76
2023/03/14 06:37:16;;;;;;;0.10;0.10;;;9.00;99.90;;;;;;4995888;28;20072;-75
2023/03/14 06:39:43;;;;;;;0.08;0.08;;;9.10;99.90;;;;;;4997150;28;20026;-74
2023/03/14 06:42:09;;;;;;;0.10;0.10;;;9.10;99.90;;;;;;4997506;28;20022;-76
2023/03/14 06:44:35;;;;;;;0.00;0.00;;;9.20;99.90;;;;;;5007328;28;20089;-75
2023/03/14 06:47:00;;;;;;;0.10;0.10;;;9.30;99.90;;;;;;5012623;28;20041;-75
2023/03/14 06:49:26;;;;;;;0.38;0.10;;;9.40;99.70;;;;;;5000299;28;20022;-75
2023/03/14 06:51:52;;;;;;;0.10;0.10;;;9.50;99.40;;;;;;5005489;28;20080;-75
2023/03/14 06:54:17;;;;;;;0.68;0.10;;;9.50;99.00;;;;;;5014846;28;20087;-75
2023/03/14 06:56:43;;;;;;;0.03;0.03;;;9.60;98.80;;;;;;5010186;28;20083;-74
2023/03/14 06:59:09;;;;;;;0.20;0.20;;;9.70;98.80;;;;;;4997203;28;20034;-75
2023/03/14 07:01:35;;;;;;;0.17;0.17;;;9.70;98.50;;;;;;4994825;28;20480;-76
2023/03/14 07:04:01;;;;;;;0.10;0.10;;;9.70;98.30;;;;;;5011636;28;20044;-75
2023/03/14 07:06:29;;;;;;;0.47;0.20;;;9.80;98.20;;;;;;5012887;28;20471;-76
2023/03/14 07:08:55;;;;;;;0.10;0.08;;;9.70;98.20;;;;;;5001391;28;20058;-75
2023/03/14 07:11:21;;;;;;;0.20;0.20;;;9.80;98.10;;;;;;4995114;28;20034;-75
2023/03/14 07:13:47;;;;;;;0.20;0.20;;;9.80;98.00;;;;;;5024827;23;20045;-76
2023/03/14 07:16:13;;;;;;;0.10;0.10;;;9.80;98.00;;;;;;5020727;28;20076;-75
2023/03/14 07:18:39;;;;;;;0.00;0.00;;;9.90;97.90;;;;;;5026271;28;20074;-75
2023/03/14 07:21:11;;;;;;;0.25;0.25;;;9.90;97.90;;;;;;5011066;28;20049;-76
2023/03/14 07:23:38;;;;;;;0.20;0.20;;;9.90;97.70;;;;;;5014617;28;20086;-77
2023/03/14 07:26:04;;;;;;;0.60;0.10;;;9.80;97.50;;;;;;5022683;28;20018;-76
2023/03/14 07:28:30;;;;;;;0.28;0.10;;;9.80;97.40;;;;;;5013827;28;20034;-76
2023/03/14 07:30:56;;;;;;;2.78;1.20;;;9.80;97.40;;;;;;5003670;28;20022;-77
2023/03/14 07:33:22;;;;;;;0.25;0.25;;;9.80;97.20;;;;;;5014150;28;20522;-76
2023/03/14 07:35:48;;;;;;;0.57;0.30;;;9.80;97.10;;;;;;5019666;28;20022;-75
2023/03/14 07:38:14;;;;;;;0.38;0.38;;;9.80;96.90;;;;;;5003406;28;20057;-76
2023/03/14 07:40:40;;;;;;;0.40;0.35;;;9.80;96.80;;;;;;4996285;28;20034;-76
2023/03/14 07:43:06;;;;;;;0.45;0.35;;;9.90;96.80;;;;;;5009073;28;20478;-75
2023/03/14 07:45:31;;;;;;;2.03;0.40;;;10.00;96.70;;;;;;5028499;28;20109;-78
2023/03/14 07:47:57;;;;;;;0.68;0.50;;;10.10;96.40;;;;;;5031936;28;20367;-75
2023/03/14 07:50:24;;;;;;;2.63;0.40;;;10.10;96.00;;;;;;5009022;28;20109;-75
2023/03/14 07:52:50;;;;;;;0.47;0.22;;;10.20;95.80;;;;;;5008141;28;20444;-75
2023/03/14 07:55:15;;;;;;;0.82;0.63;;;10.30;95.60;;;;;;4994323;28;20066;-76
2023/03/14 07:57:41;;;;;;;0.75;0.52;;;10.40;95.10;;;;;;4995401;28;20159;-76
2023/03/14 08:00:08;;;;;;;0.63;0.40;;;10.50;94.90;;;;;;5011320;28;20038;-76
2023/03/14 08:02:34;;;;;;;2.30;1.23;;;10.50;94.40;;;;;;4995502;28;20090;-76
2023/03/14 08:04:59;;;;;;;1.00;0.75;;;10.60;94.00;;;;;;5003824;28;20034;-79
2023/03/14 08:07:25;;;;;;;0.85;0.40;;;10.70;93.80;;;;;;5002964;28;20026;-79
2023/03/14 08:09:50;;;;;;;1.08;0.22;;;10.80;93.40;;;;;;5025950;28;20014;-82
2023/03/14 08:12:16;;;;;;;0.50;0.50;;;10.90;93.10;;;;;;5029724;28;20038;-79
2023/03/14 08:14:42;;;;;;;0.20;0.20;;;10.90;92.80;;;;;;5030742;28;20101;-79
2023/03/14 08:17:08;;;;;;;0.20;0.20;;;11.00;92.70;;;;;;5036090;28;20056;-79
2023/03/14 08:19:34;;;;;;;1.55;0.30;;;11.10;92.40;;;;;;5024285;28;20026;-79
2023/03/14 08:22:04;;;;;;;0.50;0.40;;;11.20;92.30;;;;;;5003322;28;20015;-80
2023/03/14 08:24:30;;;;;;;0.15;0.13;;;11.20;92.00;;;;;;5012181;28;20491;-79
2023/03/14 08:26:56;;;;;;;0.25;0.25;;;11.30;91.80;;;;;;5009219;28;20088;-78
2023/03/14 08:29:21;;;;;;;0.20;0.17;;;11.30;91.50;;;;;;5006218;28;20054;-79
2023/03/14 08:31:48;;;;;;;0.22;0.22;;;11.30;91.30;;;;;;5008804;28;20030;-81
2023/03/14 08:34:15;;;;;;;2.00;0.20;;;11.40;91.10;;;;;;5016301;28;20029;-79
2023/03/14 08:36:41;;;;;;;1.38;0.30;;;11.40;90.90;;;;;;5024873;28;20026;-79
2023/03/14 08:39:09;;;;;;;0.35;0.10;;;11.50;90.70;;;;;;5017769;28;20018;-78
2023/03/14 08:41:40;;;;;;;0.20;0.20;;;11.50;90.70;;;;;;5013167;28;20026;-78
2023/03/14 08:44:06;;;;;;;1.58;0.30;;;11.50;90.50;;;;;;5004122;28;20029;-80
2023/03/14 08:46:32;;;;;;;0.70;0.22;;;11.50;90.30;;;;;;5015074;28;20038;-79
2023/03/14 08:48:58;;;;;;;0.30;0.10;;;11.50;90.10;;;;;;5000923;28;20037;-79
2023/03/14 08:51:24;;;;;;;0.25;0.25;;;11.50;90.10;;;;;;5012972;28;20467;-79
2023/03/14 08:53:50;;;;;;;0.55;0.17;;;11.40;90.00;;;;;;5015903;28;20021;-79
2023/03/14 08:56:15;;;;;;;0.68;0.25;;;11.50;90.00;;;;;;5003685;28;20038;-79
2023/03/14 08:58:41;;;;;;;0.47;0.47;;;11.50;89.40;;;;;;4999745;28;20092;-79
2023/03/14 09:01:09;;;;;;;0.60;0.15;;;11.60;89.30;;;;;;5015118;28;20026;-78
2023/03/14 09:03:35;;;;;;;2.30;0.35;;;11.50;88.80;;;;;;5009413;28;20383;-78
2023/03/14 09:06:05;;;;;;;1.23;0.50;;;11.50;88.40;;;;;;4998370;28;20024;-78
2023/03/14 09:08:31;;;;;;;0.20;0.20;;;11.50;88.30;;;;;;5016059;28;20027;-79
2023/03/14 09:10:57;;;;;;;0.40;0.30;;;11.60;88.10;;;;;;5002859;28;20029;-80
2023/03/14 09:13:23;;;;;;;0.52;0.40;;;11.70;87.80;;;;;;5001772;28;20046;-80
2023/03/14 09:15:53;;;;;;;0.93;0.40;;;11.80;87.50;;;;;;5030320;28;20067;-80
2023/03/14 09:18:18;;;;;;;0.65;0.15;;;11.90;86.80;;;;;;5038338;28;20086;-80
2023/03/14 09:20:44;;;;;;;0.20;0.20;;;12.00;86.20;;;;;;5018588;28;20031;-80
2023/03/14 09:23:09;;;;;;;0.80;0.20;;;12.10;85.20;;;;;;5018229;28;20046;-79
2023/03/14 09:25:35;;;;;;;0.80;0.38;;;12.10;84.30;;;;;;5007392;28;20041;-78
2023/03/14 09:28:01;;;;;;;0.73;0.20;;;12.20;83.70;;;;;;5001376;28;20038;-79
2023/03/14 09:30:26;;;;;;;0.73;0.32;;;12.10;83.30;;;;;;5006859;28;20045;-80
2023/03/14 09:32:52;;;;;;;1.55;0.40;;;12.10;83.20;;;;;;5012164;28;20034;-79
2023/03/14 09:35:18;;;;;;;2.78;0.38;;;12.00;82.80;;;;;;5009514;28;20139;-79
2023/03/14 09:37:43;;;;;;;0.63;0.30;;;11.80;82.50;;;;;;5009783;28;20042;-79
2023/03/14 09:40:15;;;;;;;0.57;0.20;;;11.70;83.00;;;;;;5025668;28;20517;-78
2023/03/14 09:42:41;;;;;;;0.10;0.10;;;11.60;83.50;;;;;;5013726;28;20022;-78
2023/03/14 09:45:18;;;;;;;0.38;0.30;;;11.50;84.00;;;;;;5034075;28;20355;-79
2023/03/14 09:47:45;;;;;;;0.43;0.20;;;11.60;84.20;;;;;;5031027;28;20034;-78
2023/03/14 09:50:15;;;;;;;0.55;0.20;;;11.60;84.30;;;;;;5026282;28;20029;-78
2023/03/14 09:52:46;;;;;;;0.50;0.22;;;11.70;84.50;;;;;;5015984;28;20036;-79
2023/03/14 09:55:16;;;;;;;0.10;0.10;;;11.70;84.80;;;;;;5002527;28;20088;-80
2023/03/14 09:57:43;;;;;;;0.20;0.20;;;11.80;85.10;;;;;;4997348;28;20464;-79
2023/03/14 10:00:20;;;;;;;0.10;0.00;;;11.90;84.90;;;;;;5007856;28;20030;-79
2023/03/14 10:03:10;;;;;;;0.10;0.10;;;12.00;84.70;;;;;;5018251;28;20379;-80
2023/03/14 10:05:36;;;;;;;0.20;0.20;;;12.00;84.20;;;;;;5012939;28;20052;-78
2023/03/14 10:08:01;;;;;;;0.30;0.20;;;12.10;84.20;;;;;;5015485;28;20022;-80
2023/03/14 10:10:27;;;;;;;0.28;0.28;;;12.10;84.20;;;;;;5027052;28;20080;-79
2023/03/14 10:13:13;;;;;;;0.30;0.30;;;12.20;83.90;;;;;;5014863;28;20082;-78
2023/03/14 10:15:39;;;;;;;0.40;0.15;;;12.40;83.40;;;;;;4998167;28;20070;-78
2023/03/14 10:18:12;;;;;;;0.73;0.30;;;12.50;83.20;;;;;;4996255;28;20045;-78
2023/03/14 10:20:43;;;;;;;1.88;0.60;;;12.60;82.80;;;;;;4995816;28;20113;-79
2023/03/14 10:23:11;;;;;;;0.45;0.40;;;12.80;81.90;;;;;;5001300;28;20018;-79
2023/03/14 10:25:43;;;;;;;0.50;0.50;;;13.00;81.00;;;;;;4999494;28;20047;-78
2023/03/14 10:28:27;;;;;;;0.75;0.30;;;13.20;79.70;;;;;;5004123;28;20034;-78
2023/03/14 10:30:54;;;;;;;0.50;0.40;;;13.40;78.30;;;;;;5001244;28;20053;-78
2023/03/14 10:33:24;;;;;;;0.60;0.40;;;13.80;76.60;;;;;;5011678;28;20030;-78
2023/03/14 10:36:22;;;;;;;2.70;0.75;;;14.30;74.20;;;;;;5018511;28;20026;-78
2023/03/14 10:38:48;;;;;;;0.55;0.38;;;14.70;71.10;;;;;;5010680;28;20026;-78
2023/03/14 10:41:26;;;;;;;0.40;0.40;;;14.70;69.90;;;;;;4995993;28;20037;-79
2023/03/14 10:43:56;;;;;;;2.58;0.38;;;14.70;69.40;;;;;;4996937;28;20077;-78
2023/03/14 10:46:26;;;;;;;2.63;0.40;;;14.80;69.20;;;;;;5019964;28;20038;-79
2023/03/14 10:48:53;;;;;;;0.20;0.20;;;15.00;68.20;;;;;;5022323;28;20298;-78
2023/03/14 10:51:28;;;;;;;2.75;0.47;;;15.30;66.40;;;;;;4999253;28;20506;-78
2023/03/14 10:54:23;;;;;;;0.68;0.40;;;15.50;65.40;;;;;;4998461;28;20390;-79
2023/03/14 10:57:00;;;;;;;2.83;0.70;;;;;;;;;;4995338;28;20049;-79
2023/03/14 10:59:29;;;;;;;0.40;0.40;;;15.00;63.90;;;;;;5014136;28;20041;-78
2023/03/14 11:02:21;;;;;;;1.30;0.38;;;14.50;65.00;;;;;;5013395;28;20026;-78
2023/03/14 11:04:55;;;;;;;0.28;0.28;;;14.10;66.60;;;;;;5002328;28;20022;-80
2023/03/14 11:07:40;;;;;;;3.35;0.20;;;13.80;67.30;;;;;;4995585;28;20053;-78
2023/03/14 11:10:33;;;;;;;0.52;0.30;;;13.80;67.60;;;;;;4994720;28;20081;-78
2023/03/14 11:13:15;;;;;;;1.02;0.30;;;13.80;68.30;;;;;;4991804;28;20039;-78
2023/03/14 11:16:11;;;;;;;0.63;0.32;;;13.80;68.40;;;;;;5042727;28;20038;-80
2023/03/14 11:18:51;;;;;;;2.33;0.60;;;14.00;67.90;;;;;;5029245;28;20053;-79
2023/03/14 11:21:47;;;;;;;0.28;0.28;;;14.00;67.60;;;;;;5019694;28;20022;-78
2023/03/14 11:24:45;;;;;;;0.40;0.40;;;14.00;67.60;;;;;;5013821;28;20039;-80
2023/03/14 11:27:42;;;;;;;0.30;0.30;;;14.10;67.50;;;;;;4999523;28;20056;-79
2023/03/14 11:30:19;;;;;;;1.02;0.30;;;14.30;66.30;;;;;;5007035;28;20108;-79
2023/03/14 11:33:08;;;;;;;0.32;0.20;;;14.50;65.30;;;;;;5022256;28;20032;-79
2023/03/14 11:35:39;;;;;;;1.33;0.40;;;14.70;63.90;;;;;;5008722;28;20022;-79
2023/03/14 11:38:10;;;;;;;1.13;0.35;;;15.10;62.90;;;;;;5013558;28;20030;-79
2023/03/14 11:40:38;;;;;;;0.77;0.30;;;15.20;61.80;;;;;;5020655;28;20105;-78
2023/03/14 11:43:17;;;;;;;0.40;0.40;;;15.30;61.10;;;;;;5018820;28;20089;-78
2023/03/14 11:45:44;;;;;;;0.40;0.40;;;15.30;61.60;;;;;;5024933;28;20038;-78
2023/03/14 11:48:32;;;;;;;0.77;0.40;;;15.20;61.70;;;;;;5026727;28;20502;-79
2023/03/14 11:51:01;;;;;;;0.60;0.30;;;15.10;61.80;;;;;;5002485;28;20129;-78
2023/03/14 11:53:43;;;;;;;1.55;0.30;;;15.00;61.90;;;;;;4998294;28;20029;-77
2023/03/14 11:56:27;;;;;;;0.30;0.30;;;14.80;61.90;;;;;;4998138;28;20027;-77
2023/03/14 11:58:59;;;;;;;0.77;0.50;;;14.60;62.70;;;;;;4998046;28;20038;-78
2023/03/14 12:01:32;;;;;;;;;;;14.40;63.10;;;;;;5004146;28;20026;-78
2023/03/14 12:04:11;;;;;;;0.80;0.32;;;14.10;63.40;;;;;;5012684;28;19949;-77
2023/03/14 12:06:50;;;;;;;2.35;0.70;;;13.90;64.60;;;;;;5011447;28;20395;-78
2023/03/14 12:09:21;;;;;;;0.40;0.40;;;13.70;65.50;;;;;;5014283;28;20026;-77
2023/03/14 12:11:59;;;;;;;1.15;0.30;;;13.70;65.60;;;;;;5017552;28;20438;-77
2023/03/14 12:14:36;;;;;;;1.35;0.35;;;13.90;65.60;;;;;;5022793;28;20022;-78
2023/03/14 12:17:21;;;;;;;0.75;0.30;;;14.00;65.00;;;;;;5006271;28;20082;-78
2023/03/14 12:19:47;;;;;;;0.30;0.20;;;14.00;64.90;;;;;;5002175;28;20093;-77
2023/03/14 12:22:22;;;;;;;0.47;0.40;;;14.00;65.40;;;;;;4995638;28;20080;-78
2023/03/14 12:25:01;;;;;;;1.13;0.30;;;13.80;65.50;;;;;;4996163;28;20103;-78
2023/03/14 12:27:45;;;;;;;1.58;0.50;;;13.80;65.60;;;;;;4994117;28;20030;-76
2023/03/14 12:30:40;;;;;;;0.60;0.20;;;13.80;65.70;;;;;;5003945;28;20076;-77
2023/03/14 12:33:09;;;;;;;1.17;0.40;;;13.90;65.00;;;;;;4998928;28;20100;-77
2023/03/14 12:35:40;;;;;;;0.30;0.30;;;14.00;64.40;;;;;;5017782;28;20038;-78
2023/03/14 12:38:34;;;;;;;0.30;0.30;;;14.10;64.30;;;;;;5026725;28;20022;-76
2023/03/14 12:41:14;;;;;;;0.98;0.32;;;14.20;63.90;;;;;;5008976;28;20022;-79
2023/03/14 12:43:40;;;;;;;0.15;0.15;;;14.10;63.60;;;;;;5001033;28;20451;-79
2023/03/14 12:46:22;;;;;;;1.38;0.30;;;14.10;64.10;;;;;;5017209;28;20112;-78
2023/03/14 12:49:00;;;;;;;0.20;0.20;;;14.30;64.20;;;;;;5008470;28;20056;-78
2023/03/14 12:51:36;;;;;;;3.03;0.47;;;14.50;63.30;;;;;;5004573;28;20497;-77
2023/03/14 12:54:14;;;;;;;2.05;0.32;;;14.60;63.00;;;;;;5002431;28;20036;-79
2023/03/14 12:57:07;;;;;;;0.63;0.20;;;14.70;62.70;;;;;;5011619;28;20085;-79
2023/03/14 12:59:45;;;;;;;0.20;0.20;;;14.90;61.80;;;;;;5022861;28;20022;-78
2023/03/14 13:02:36;;;;;;;0.45;0.30;;;14.80;61.90;;;;;;4997310;28;20507;-78
2023/03/14 13:05:13;;;;;;;0.75;0.28;;;14.80;62.00;;;;;;5004519;28;20026;-77